Home > Products > Valid Products > TAF

000
FTUS46 KPDT 011700
TAFALW
TAF
KALW 011720Z 0118/0218 22011KT P6SM FEW250
     FM020200 18009KT P6SM SCT150
     FM021000 20006KT P6SM FEW150=



000
FTUS46 KPDT 011700
TAFPSC
TAF
KPSC 011720Z 0118/0218 22010KT P6SM FEW220
     FM020700 VRB04KT P6SM FEW250=



000
FTUS46 KPDT 011700
TAFYKM
TAF
KYKM 011720Z 0118/0218 VRB05KT P6SM SKC
     FM012000 27008KT P6SM FEW200
     FM020000 29011KT P6SM SCT200
     FM020900 27005KT P6SM FEW200=



000
FTUS46 KPDT 011700
TAFRDM
TAF
KRDM 011720Z 0118/0218 VRB05KT P6SM SKC
     FM012100 32008KT P6SM FEW200
     FM020600 20005KT P6SM FEW150
     FM020900 15004KT P6SM FEW120=



000
FTUS46 KPDT 011700
TAFDLS
TAF
KDLS 011720Z 0118/0218 31009G15KT P6SM SKC
     FM012000 31015G23KT P6SM FEW250
     FM020300 30011KT P6SM FEW200
     FM021000 29005KT P6SM FEW120=



000
FTUS46 KPDT 011700
TAFPDT
TAF
KPDT 011720Z 0118/0218 27012KT P6SM FEW200
     FM020300 23009KT P6SM SCT250
     FM021300 16005KT P6SM FEW150=



000
FTUS46 KPDT 011100
TAFPDT
TAF
KPDT 011127Z 0112/0212 20007KT P6SM BKN080
     FM011800 27011KT P6SM FEW250
     FM020300 23008KT P6SM SKC=



000
FTUS46 KPDT 011100
TAFRDM
TAF
KRDM 011127Z 0112/0212 15003KT P6SM FEW040
     FM012000 33008KT P6SM FEW250
     FM020600 20005KT P6SM SKC=



000
FTUS46 KPDT 011100
TAFYKM
TAF
KYKM 011127Z 0112/0212 25005KT P6SM SKC
     FM011900 14005KT P6SM SCT250
     FM020000 29011KT P6SM SCT200=



000
FTUS46 KPDT 011100
TAFPSC
TAF
KPSC 011127Z 0112/0212 VRB03KT P6SM SKC
     FM011900 22010KT P6SM SCT250
     FM020600 VRB03KT P6SM SKC=



000
FTUS46 KPDT 011100
TAFDLS
TAF
KDLS 011127Z 0112/0212 30009KT P6SM SKC
     FM011800 31015G23KT P6SM SCT250
     FM020300 30011KT P6SM SCT200=



000
FTUS46 KPDT 011100
TAFALW
TAF
KALW 011127Z 0112/0212 18006KT P6SM SCT070
     FM011700 23009KT P6SM FEW250
     FM020200 18009KT P6SM SCT250=



000
FTUS46 KPDT 010500
TAFRDM
TAF
KRDM 010525Z 0106/0206 28006KT P6SM SCT045 OVC060
     FM010800 15003KT P6SM FEW040
     FM012000 33008KT P6SM FEW250=



000
FTUS46 KPDT 010500
TAFDLS
TAF
KDLS 010525Z 0106/0206 29009KT P6SM SKC
     FM012000 31015G23KT P6SM SCT250
     FM020300 30011KT P6SM SCT200=



000
FTUS46 KPDT 010500
TAFALW
TAF
KALW 010525Z 0106/0206 19008KT P6SM BKN090
     FM011000 18006KT P6SM SCT050
     FM011700 23009KT P6SM FEW250
     FM020200 18009KT P6SM SCT250=



000
FTUS46 KPDT 010500
TAFYKM
TAF
KYKM 010525Z 0106/0206 31012G19KT P6SM SKC
     FM011000 27005KT P6SM SKC
     FM011900 14005KT P6SM SCT250
     FM020000 29011KT P6SM SCT200=



000
FTUS46 KPDT 010500
TAFPDT
TAF
KPDT 010525Z 0106/0206 26014G20KT P6SM SCT090
     FM010900 24010KT P6SM FEW070
     FM011200 19006KT P6SM FEW050
     FM011800 27011KT P6SM FEW250=



000
FTUS46 KPDT 010500
TAFPSC
TAF
KPSC 010525Z 0106/0206 28007KT P6SM SKC
     FM011000 21004KT P6SM SKC
     FM011900 22010KT P6SM SCT250=



000
FTUS46 KPDT 010300 AAA
TAFYKM
TAF AMD
KYKM 010356Z 0104/0124 30007KT P6SM FEW080
     FM011000 VRB05KT P6SM SKC
     FM011500 VRB05KT P6SM SCT220=



000
FTUS46 KPDT 010200 AAA
TAFPSC
TAF AMD
KPSC 010229Z 0102/0124 30008KT P6SM FEW090
     FM010800 20005KT P6SM SKC
     FM011500 21010KT P6SM SCT250=



000
FTUS46 KPDT 010200 AAA
TAFRDM
TAF AMD
KRDM 010227Z 0102/0124 30010KT P6SM FEW050 BKN070
     FM010900 15004KT P6SM SKC
     FM011500 15005KT P6SM FEW250
     FM011900 32006KT P6SM SKC=



000
FTUS46 KPDT 302300
TAFRDM
TAF
KRDM 302320Z 0100/0124 30012G19KT P6SM FEW050 BKN060
     FM010300 31009KT P6SM FEW050
     FM010900 15004KT P6SM SKC
     FM011500 15005KT P6SM FEW250
     FM011900 32006KT P6SM SKC=



000
FTUS46 KPDT 302300
TAFPSC
TAF
KPSC 302320Z 0100/0124 VRB06KT P6SM -SHRA SCT060 BKN080
     FM010300 29008KT P6SM SKC
     FM010800 VRB05KT P6SM SKC
     FM011500 21010KT P6SM SCT250=



000
FTUS46 KPDT 302300
TAFPDT
TAF
KPDT 302320Z 0100/0124 28012G20KT P6SM -SHRA SCT050 BKN070
     FM010200 26016G26KT P6SM FEW070
     FM010700 25011KT P6SM FEW050
     FM011200 20007KT P6SM FEW050 SCT250
     FM011800 27010KT P6SM SCT220=



000
FTUS46 KPDT 302300
TAFYKM
TAF
KYKM 302320Z 0100/0124 32012G18KT P6SM SCT070
     FM010400 30007KT P6SM SKC
     FM011000 VRB05KT P6SM SKC
     FM011500 VRB05KT P6SM SCT220=



000
FTUS46 KPDT 302300
TAFALW
TAF
KALW 302320Z 0100/0124 21011G17KT P6SM -SHRA BKN060
     FM010200 20009KT P6SM FEW070
     FM010400 19008KT P6SM FEW050
     FM011000 19006KT P6SM FEW030
     FM011700 22009KT P6SM SCT220=



000
FTUS46 KPDT 302300
TAFDLS
TAF
KDLS 302320Z 0100/0124 29020G30KT P6SM FEW050
     FM010300 29014KT P6SM FEW040
     FM010600 29009KT P6SM SKC
     FM011600 30008G15KT P6SM SCT250
     FM011900 30014G21KT P6SM SCT250=



000
FTUS46 KPDT 302100 AAA
TAFALW
TAF AMD
KALW 302147Z 3022/0118 23012G18KT P6SM VCSH BKN060
      TEMPO 3022/0101 -SHRA BKN060
     FM010400 20009KT P6SM FEW050
     FM011000 19006KT P6SM FEW025
     FM011600 21008KT P6SM SCT250=



000
FTUS46 KPDT 302100 AAA
TAFPDT
TAF AMD
KPDT 302141Z 3022/0118 28018G28KT P6SM SCT080
      TEMPO 3022/0101 -SHRA BKN070
     FM010100 26015G25KT P6SM SCT070
     FM010300 25014KT P6SM SCT060
     FM010900 20008KT P6SM FEW050 SCT250=



000
FTUS46 KPDT 302100 AAA
TAFPSC
TAF AMD
KPSC 302135Z 3022/0118 24012G20KT P6SM SCT080
      TEMPO 3022/3024 -RA BKN080
     FM010300 28011KT P6SM SKC
     FM010800 VRB05KT P6SM SKC
     FM011500 21006KT P6SM SCT250=



000
FTUS46 KPDT 302000 AAA
TAFYKM
TAF AMD
KYKM 302026Z 3020/0118 27010G17KT P6SM FEW050
     FM302300 30012G22KT P6SM FEW060
     FM010400 30008KT P6SM SKC
     FM011000 VRB05KT P6SM SKC
     FM011500 31005KT P6SM SCT250=



000
FTUS46 KPDT 301700
TAFDLS
TAF
KDLS 301720Z 3018/0118 30018G30KT P6SM FEW050
     FM010300 29011KT P6SM FEW040
     FM011500 30008G15KT P6SM BKN250=



000
FTUS46 KPDT 301700
TAFALW
TAF
KALW 301720Z 3018/0118 22013G20KT P6SM BKN060
     FM010000 23012G18KT P6SM VCSH BKN060
     FM010400 19009KT P6SM FEW050
     FM011000 19006KT P6SM FEW025
     FM011600 21008KT P6SM SCT250=



000
FTUS46 KPDT 301700
TAFPDT
TAF
KPDT 301720Z 3018/0118 28018G28KT P6SM SCT080
     FM010000 26015G25KT P6SM SCT070
     FM010300 25014KT P6SM SCT060
     FM010900 20008KT P6SM FEW050 SCT250=



000
FTUS46 KPDT 301700
TAFPSC
TAF
KPSC 301720Z 3018/0118 24012G20KT P6SM SCT080
     FM010300 28011KT P6SM SKC
     FM010800 VRB05KT P6SM SKC
     FM011500 21006KT P6SM SCT250=



000
FTUS46 KPDT 301700
TAFRDM
TAF
KRDM 301720Z 3018/0118 32014G20KT P6SM SCT060
     FM010300 31008KT P6SM SCT035
     FM010900 15004KT P6SM SCT040
     FM011500 15005KT P6SM SCT250=



000
FTUS46 KPDT 301700
TAFYKM
TAF
KYKM 301720Z 3018/0118 31009G15KT P6SM FEW050
     FM302300 31012G22KT P6SM FEW060
     FM010400 31008KT P6SM SKC
     FM011000 VRB05KT P6SM SKC
     FM011500 31005KT P6SM SCT250=



000
FTUS46 KPDT 301100
TAFYKM
TAF
KYKM 301120Z 3012/0112 31009KT P6SM FEW050
     FM301900 30014G21KT P6SM FEW070
     FM010400 31008KT P6SM SKC=



000
FTUS46 KPDT 301100
TAFPDT
TAF
KPDT 301120Z 3012/0112 26015G25KT P6SM SCT050 BKN070
     FM301500 26020G30KT P6SM BKN060
     FM302200 28015G25KT P6SM BKN070
     FM010300 25014KT P6SM SCT070=



000
FTUS46 KPDT 301100
TAFDLS
TAF
KDLS 301120Z 3012/0112 30011KT P6SM SCT050
     FM301800 30015G25KT P6SM SCT050
     FM302100 30020G30KT P6SM SCT060
     FM010300 29011KT P6SM SKC=



000
FTUS46 KPDT 301100
TAFALW
TAF
KALW 301120Z 3012/0112 21013G19KT P6SM BKN060
     FM301600 22014G22KT P6SM BKN050
     FM302100 24016G22KT P6SM SCT050 BKN070
     FM010300 19010KT P6SM SCT070=



000
FTUS46 KPDT 301100
TAFPSC
TAF
KPSC 301120Z 3012/0112 23012KT P6SM FEW080
     FM301800 24015G23KT P6SM BKN070
     FM010200 27010KT P6SM FEW070
     FM010600 VRB04KT P6SM SKC=



000
FTUS46 KPDT 301100
TAFRDM
TAF
KRDM 301120Z 3012/0112 VRB05KT P6SM SCT050
     FM302000 31012G20KT P6SM BKN060
     FM010200 32010KT P6SM FEW060
     FM010900 VRB04KT P6SM SKC=



000
FTUS46 KPDT 301000 AAA
TAFALW
TAF AMD
KALW 301017Z 3010/0106 21013G19KT P6SM BKN060
     FM301600 22014G22KT P6SM BKN045
     FM302100 24016G22KT P6SM FEW045 BKN070
     FM010300 19010KT P6SM SCT070=



000
FTUS46 KPDT 300900 AAA
TAFDLS
TAF AMD
KDLS 300900Z 3009/0106 30011KT P6SM SCT060
     FM301800 30021G29KT P6SM FEW060
     FM010300 29011KT P6SM SKC=



000
FTUS46 KPDT 300800 AAA
TAFYKM
TAF AMD
KYKM 300859Z 3009/0106 31009KT P6SM FEW050
     FM301900 30014G21KT P6SM FEW070
     FM010400 31008KT P6SM SKC=



000
FTUS46 KPDT 300500
TAFPSC
TAF
KPSC 300529Z 3006/0106 23013G19KT P6SM SCT080 BKN110
     FM301000 23012KT P6SM FEW080
     FM301800 24015G23KT P6SM BKN090
     FM010200 27010KT P6SM FEW090=



000
FTUS46 KPDT 300500
TAFPDT
TAF
KPDT 300529Z 3006/0106 26018G26KT P6SM VCSH BKN070 OVC090
     FM300900 26022G30KT P6SM BKN080
     FM301900 26017G25KT P6SM SCT090=



000
FTUS46 KPDT 300500
TAFDLS
TAF
KDLS 300529Z 3006/0106 30015G23KT P6SM FEW045 SCT080
     FM301400 30011KT P6SM SCT060
     FM301800 30021G29KT P6SM FEW060
     FM010300 29011KT P6SM SKC=



000
FTUS46 KPDT 300500
TAFALW
TAF
KALW 300529Z 3006/0106 20015KT P6SM VCSH BKN035 OVC050
     FM300800 19013KT P6SM VCSH SCT035 BKN050
     FM301600 22014G22KT P6SM BKN045
     FM302100 24016G22KT P6SM FEW045 BKN070
     FM010300 19010KT P6SM SCT070=



000
FTUS46 KPDT 300500
TAFYKM
TAF
KYKM 300529Z 3006/0106 29010G17KT P6SM FEW070
     FM301000 31009KT P6SM FEW050
     FM301900 30014G21KT P6SM FEW070
     FM010400 31008KT P6SM SKC=



000
FTUS46 KPDT 300500
TAFRDM
TAF
KRDM 300529Z 3006/0106 30008KT P6SM SCT030 OVC045
     FM301000 30005KT P6SM SCT040
     FM302000 31012G20KT P6SM BKN060
     FM010200 32010KT P6SM FEW060=



000
FTUS46 KPDT 300300 AAA
TAFDLS
TAF AMD
KDLS 300311Z 3003/3024 31014G20KT P6SM SCT080 BKN250
     FM300800 30013KT P6SM SKC
     FM301600 30014G21KT P6SM SCT080
     FM301900 31020G28KT P6SM FEW080=



000
FTUS46 KPDT 300300 AAA
TAFYKM
TAF AMD
KYKM 300310Z 3003/3024 29011KT P6SM VCSH BKN070 BKN250
     FM300600 29008KT P6SM FEW070 SCT250
     FM301500 31011KT P6SM FEW050
     FM302100 30011G17KT P6SM FEW060=



000
FTUS46 KPDT 292300
TAFPSC
TAF
KPSC 292326Z 3000/3024 24011G16KT P6SM SCT250
     FM300200 24011G16KT P6SM BKN080 BKN250
     FM300800 22011KT P6SM SCT070 SCT250
     FM301500 23008KT P6SM FEW070
     FM301800 24011G16KT P6SM SCT080=



000
FTUS46 KPDT 292300
TAFYKM
TAF
KYKM 292326Z 3000/3024 29014G22KT P6SM BKN070 BKN250
     FM300400 29008KT P6SM FEW070 SCT250
     FM300700 28006KT P6SM SKC
     FM301500 31011KT P6SM FEW050
     FM302100 30011G17KT P6SM FEW060=



000
FTUS46 KPDT 292300
TAFDLS
TAF
KDLS 292326Z 3000/3024 31022G30KT P6SM BKN070 BKN250
     FM300400 31015G23KT P6SM SCT080 SCT250
     FM300800 30013KT P6SM SKC
     FM301600 30014G21KT P6SM SCT080
     FM301900 31020G28KT P6SM FEW080=



000
FTUS46 KPDT 292300
TAFALW
TAF
KALW 292326Z 3000/3024 22015KT P6SM SCT250
     FM300400 20013KT P6SM -SHRA SCT025 BKN060 BKN250
     FM301200 20013KT P6SM SCT025 BKN050
     FM301800 22012G19KT P6SM SCT070=



000
FTUS46 KPDT 292300
TAFRDM
TAF
KRDM 292326Z 3000/3024 31016G23KT P6SM BKN090 BKN200
     FM300300 29009KT P6SM BKN080 BKN200
     FM301100 VRB06KT P6SM SCT070
     FM301900 32010G15KT P6SM FEW060
     FM302200 32014G21KT P6SM SCT060=



000
FTUS46 KPDT 292300
TAFPDT
TAF
KPDT 292326Z 3000/3024 27016G25KT P6SM SCT250
     FM300300 25018G27KT P6SM VCSH BKN080 BKN250
     FM300800 26019G26KT P6SM SCT090
     FM301200 25016KT P6SM BKN090
     FM301900 26018G25KT P6SM SCT070=



000
FTUS46 KPDT 292200 AAB
TAFPSC
TAF AMD
KPSC 292224Z 2922/3018 22011G16KT P6SM SCT120 SCT250
     FM300200 24008KT P6SM SCT070 BKN250
     FM300800 22012KT P6SM FEW070 SCT250
     FM301500 23013KT P6SM SCT070=



000
FTUS46 KPDT 292100 AAA
TAFPSC
TAF AMD
KPSC 292128Z 2921/3018 22014G21KT P6SM SCT120 BKN250
     FM300200 24008KT P6SM SCT070 BKN250
     FM300800 22012KT P6SM FEW070 SCT250
     FM301500 23013KT P6SM SCT070=



000
FTUS46 KPDT 292100 AAA
TAFYKM
TAF AMD
KYKM 292127Z 2921/3018 VRB06KT P6SM BKN150
     FM292300 29014G22KT P6SM SCT070 BKN150
     FM300400 29008KT P6SM FEW070 SCT250
     FM301500 31011G16KT P6SM FEW060=



000
FTUS46 KPDT 291700
TAFYKM
TAF
KYKM 291721Z 2918/3018 VRB06KT P6SM SKC
     FM292000 29014G22KT P6SM SCT070 BKN150
     FM300400 29008KT P6SM FEW070 SCT250
     FM301500 31011G16KT P6SM FEW060=



000
FTUS46 KPDT 291700
TAFRDM
TAF
KRDM 291721Z 2918/3018 VRB06KT P6SM SCT250
     FM292000 31010G16KT P6SM SCT070 SCT250
     FM292300 31014G20KT P6SM BKN070
     FM300300 29008KT P6SM BKN060 OVC100
     FM301100 VRB06KT P6SM FEW050=



000
FTUS46 KPDT 291700
TAFPDT
TAF
KPDT 291721Z 2918/3018 25014KT P6SM BKN120
     FM292000 27014G22KT P6SM SCT250
     FM300100 27018G27KT P6SM VCSH BKN070 BKN250
     FM300700 26020G28KT P6SM BKN090
     FM301200 25017G24KT P6SM SCT070=



000
FTUS46 KPDT 291700
TAFALW
TAF
KALW 291721Z 2918/3018 21010KT P6SM BKN120
     FM292000 23013G21KT P6SM SCT250
     FM300300 20013KT P6SM -SHRA SCT025 BKN060 BKN250
     FM301100 20013KT P6SM SCT020 BKN035 BKN060=



000
FTUS46 KPDT 291700
TAFPSC
TAF
KPSC 291721Z 2918/3018 22011KT P6SM SKC
     FM292100 23014G23KT P6SM SCT120 BKN250
     FM300200 24008KT P6SM SCT070 BKN250
     FM300800 22012KT P6SM FEW070 SCT250
     FM301500 23013KT P6SM SCT070=



000
FTUS46 KPDT 291700
TAFDLS
TAF
KDLS 291721Z 2918/3018 31016G22KT P6SM FEW150 SCT250
     FM292000 31018G28KT P6SM VCSH BKN070 BKN250
     FM300300 30014G20KT P6SM SCT080 SCT250
     FM300800 30011KT P6SM SKC
     FM301200 30012G19KT P6SM FEW070=



000
FTUS46 KPDT 291600 AAA
TAFPDT
TAF AMD
KPDT 291628Z 2916/3012 24012G18KT P6SM BKN120 BKN250
     FM291800 27014G23KT P6SM SCT250
     FM292200 27018G28KT P6SM BKN070 BKN250=



000
FTUS46 KPDT 291600 AAA
TAFDLS
TAF AMD
KDLS 291623Z 2916/3012 31012G19KT P6SM FEW150 SCT250
     FM292000 31018G28KT P6SM SCT070 BKN250
     FM300300 30011KT P6SM FEW080 SCT250=



000
FTUS46 KPDT 291100
TAFPDT
TAF
KPDT 291120Z 2912/3012 17005KT P6SM BKN090 OVC250
     FM291500 24012KT P6SM BKN090 OVC250
     FM291800 27012G22KT P6SM SCT070 BKN250
     FM292200 27018G28KT P6SM SCT070 BKN250=



000
FTUS46 KPDT 291100
TAFRDM
TAF
KRDM 291120Z 2912/3012 VRB05KT P6SM FEW250
     FM292000 31014G22KT P6SM SCT070 SCT250
     FM300300 VRB05KT P6SM BKN050 OVC100=



000
FTUS46 KPDT 291100
TAFPSC
TAF
KPSC 291120Z 2912/3012 VRB05KT P6SM BKN120 OVC250
     FM291800 22010KT P6SM SCT120 BKN250
     FM292100 23014G23KT P6SM SCT120 BKN250
     FM300300 24008KT P6SM SCT100 BKN250=



000
FTUS46 KPDT 291100
TAFYKM
TAF
KYKM 291120Z 2912/3012 28007KT P6SM SCT250
     FM292000 28014G22KT P6SM FEW100 SCT250
     FM300600 30007KT P6SM FEW100 SCT250=



000
FTUS46 KPDT 291100
TAFDLS
TAF
KDLS 291120Z 2912/3012 VRB06KT P6SM SCT250
     FM291500 31012KT P6SM FEW100 BKN250
     FM292000 31018G28KT P6SM BKN250
     FM300300 30012KT P6SM FEW100 SCT250=



000
FTUS46 KPDT 291100
TAFALW
TAF
KALW 291120Z 2912/3012 19007KT P6SM OVC080
     FM292000 23012G22KT P6SM SCT070 BKN250
     FM300300 19013KT P6SM BKN070 BKN250=



000
FTUS46 KPDT 290500 AAA
TAFPSC
TAF AMD
KPSC 290541Z 2906/3006 VRB06KT P6SM BKN100
     FM291500 22008KT P6SM SCT250
     FM291800 20012KT P6SM BKN100 BKN250
     FM292200 23015G25KT P6SM SCT080 SCT250=



000
FTUS46 KPDT 290500
TAFDLS
TAF
KDLS 290539Z 2906/3006 VRB06KT P6SM SCT250
     FM291500 31012G18KT P6SM FEW100 BKN250
     FM292000 31018G28KT P6SM SCT070 BKN100=



000
FTUS46 KPDT 290500
TAFYKM
TAF
KYKM 290539Z 2906/3006 27008KT P6SM SCT250
     FM291800 VRB06KT P6SM FEW100 FEW250
     FM292000 30010KT P6SM SCT050 BKN100=



000
FTUS46 KPDT 290500
TAFRDM
TAF
KRDM 290539Z 2906/3006 VRB06KT P6SM BKN250
     FM290800 17007KT P6SM SCT250
     FM291800 VRB06KT P6SM FEW250
     FM292000 30012G22KT P6SM BKN050 BKN100=



000
FTUS46 KPDT 290500
TAFALW
TAF
KALW 290539Z 2906/3006 17007KT P6SM BKN070 BKN250
     FM291500 22008KT P6SM SCT070 SCT250
     FM291800 25010KT P6SM SCT050 SCT250
     FM292200 25015G25KT P6SM SCT150 SCT250=



000
FTUS46 KPDT 290500
TAFPDT
TAF
KPDT 290539Z 2906/3006 17007KT P6SM BKN070 BKN250
     FM291500 22008KT P6SM SCT070 SCT250
     FM291800 25010KT P6SM SCT050 SCT250
     FM292200 28015G25KT P6SM SCT150 SCT250=



000
FTUS46 KPDT 290500
TAFPSC
TAF
KPSC 290539Z 2906/3006 VRB06KT P6SM BKN100
     FM291500 22008KT P6SM SCT250
     FM292000 20010KT P6SM BKN100 BKN250
     FM292200 23015G25KT P6SM SCT080 SCT250=



000
FTUS46 KPDT 282300
TAFDLS
TAF
KDLS 282320Z 2900/2924 30007KT P6SM SCT250
     FM290600 VRB05KT P6SM SCT250
     FM291800 31012G18KT P6SM FEW120 BKN200
     FM292100 31018G25KT P6SM SCT070 BKN100=



000
FTUS46 KPDT 282300
TAFRDM
TAF
KRDM 282320Z 2900/2924 33008KT P6SM FEW060 SCT100 BKN200
     FM290400 VRB04KT P6SM BKN250
     FM290900 17005KT P6SM SCT250
     FM291700 VRB06KT P6SM FEW250
     FM292000 31012G20KT P6SM SCT120 SCT200=



000
FTUS46 KPDT 282300
TAFPSC
TAF
KPSC 282320Z 2900/2924 VRB06KT P6SM SCT120 BKN250
     FM291500 22007KT P6SM SCT250
     FM291900 21011KT P6SM FEW090 SCT250
     FM292200 23012G19KT P6SM SCT080 SCT150=



000
FTUS46 KPDT 282300
TAFYKM
TAF
KYKM 282320Z 2900/2924 VRB06KT P6SM SCT250
     FM290400 27007KT P6SM SCT250
     FM291700 VRB06KT P6SM FEW120 FEW250
     FM292000 30011KT P6SM SCT060 BKN100=



000
FTUS46 KPDT 282300
TAFALW
TAF
KALW 282320Z 2900/2924 21005KT P6SM BKN070 BKN120
     FM290400 15007KT P6SM BKN080 OVC120
     FM290900 18007KT P6SM BKN080 OVC100
     FM291600 20008KT P6SM SCT080 SCT150
     FM292000 22012KT P6SM SCT080 SCT200=



000
FTUS46 KPDT 282300
TAFPDT
TAF
KPDT 282320Z 2900/2924 VRB06KT P6SM BKN070 BKN120
     FM290400 17007KT P6SM BKN080 BKN150
     FM291500 22008KT P6SM SCT080 SCT250
     FM291900 25011KT P6SM FEW150 SCT250
     FM292100 28015G23KT P6SM SCT150 SCT250=



    US Dept of Commerce
    National Oceanic and Atmospheric Administration
    National Weather Service
    1325 East West Highway
    Silver Spring, MD 20910
    Page Author: NWS Internet Services Team
Disclaimer
Information Quality
Credits
Glossary
Privacy Policy
Freedom of Information Act (FOIA)
About Us
Career Opportunities